Terminal Aerodrome Forecast
Issued by NWS Sioux Falls, SD

Home | Current Version | Previous Version | Graphics & Text | Print | Product List | Glossary On
Versions: 1 2 3 4 5 6 7 8 9 10 11 12 13 14 15 16 17 18 19 20 21 22 23 24 25 26 27 28 29 30 31 32 33 34 35 36 37 38 39
000
FTUS43 KFSD 231738
TAFSUX
TAF
KSUX 231738Z 2318/2418 15013KT P6SM OVC035
     FM240100 12009KT P6SM OVC025
     FM240500 11008KT 5SM -SHRA OVC018
     FM241000 09009KT 4SM SHRA BR OVC009
     FM241600 10010KT 6SM BR OVC008=

USA.gov is the U.S. government's official web portal to all federal, state and local government web resources and services.